Time;durP1;ratioP1;P1;durP2;ratioP2;P2;SDS_P1;SDS_P2;PMS_P1;PMS_P2;Temp;Humidity;BMP_temperature;BMP_pressure;BME280_temperature;BME280_humidity;BME280_pressure;Samples;Min_cycle;Max_cycle;Signal;HPM_P1;HPM_P2
2022/04/29 00:00:57;;;;;;;12.02;3.88;;;;;;;12.53;45.88;102955.47;5011332;28;123684;-68
2022/04/29 00:03:24;;;;;;;9.98;4.20;;;;;;;12.50;46.44;102953.72;5011675;28;110292;-69
2022/04/29 00:05:54;;;;;;;8.10;4.30;;;;;;;12.45;46.06;102955.56;5013138;28;108973;-70
2022/04/29 00:08:22;;;;;;;8.57;4.68;;;;;;;12.42;46.29;102953.00;5009848;28;124435;-69
2022/04/29 00:10:50;;;;;;;8.32;4.18;;;;;;;12.39;46.65;102947.72;4993833;28;123345;-69
2022/04/29 00:13:17;;;;;;;9.95;4.57;;;;;;;12.38;46.69;102938.88;4978868;28;108930;-70
2022/04/29 00:15:45;;;;;;;11.73;4.70;;;;;;;12.36;46.50;102939.84;5010814;28;109036;-70
2022/04/29 00:18:12;;;;;;;10.70;4.70;;;;;;;12.35;46.44;102943.38;5012242;28;124229;-70
2022/04/29 00:20:39;;;;;;;7.97;4.80;;;;;;;12.33;46.52;102934.56;5003127;28;124984;-70
2022/04/29 00:23:07;;;;;;;8.18;4.57;;;;;;;12.30;46.71;102934.59;5001056;28;109767;-70
2022/04/29 00:25:35;;;;;;;10.80;4.47;;;;;;;12.26;46.48;102929.38;4995473;28;109774;-70
2022/04/29 00:28:03;;;;;;;12.93;4.95;;;;;;;12.23;46.70;102929.41;5007845;28;124234;-70
2022/04/29 00:30:31;;;;;;;8.60;4.93;;;;;;;12.21;46.71;102923.25;4993697;28;122914;-70
2022/04/29 00:32:59;;;;;;;11.20;4.57;;;;;;;12.18;46.77;102920.66;5012383;28;109462;-70
2022/04/29 00:35:27;;;;;;;7.80;4.65;;;;;;;12.15;46.73;102915.41;5009919;28;108808;-70
2022/04/29 00:37:56;;;;;;;9.00;4.82;;;;;;;12.10;47.09;102911.94;5005837;28;124774;-70
2022/04/29 00:40:25;;;;;;;9.18;4.30;;;;;;;12.06;46.95;102915.56;4974270;28;122790;-70
2022/04/29 00:42:53;;;;;;;9.27;4.50;;;;;;;12.01;47.20;102914.78;4974698;28;108257;-70
2022/04/29 00:45:22;;;;;;;9.25;4.50;;;;;;;11.98;47.15;102917.47;4989361;28;109108;-70
2022/04/29 00:47:51;;;;;;;10.77;4.55;;;;;;;11.95;47.47;102918.41;4988684;28;124070;-70
2022/04/29 00:50:24;;;;;;;8.30;4.03;;;;;;;11.93;47.15;102919.34;4989766;28;124057;-71
2022/04/29 00:52:53;;;;;;;9.40;4.43;;;;;;;11.93;47.48;102916.69;4994724;28;109455;-70
2022/04/29 00:55:22;;;;;;;9.43;4.40;;;;;;;11.91;47.14;102916.72;4992955;28;109008;-69
2022/04/29 00:58:16;;;;;;;7.90;4.38;;;;;;;11.86;47.54;102927.38;4962097;28;124333;-70
2022/04/29 01:00:43;;;;;;;10.50;4.70;;;;;;;11.82;47.13;102923.00;4976342;28;123672;-70
2022/04/29 01:03:12;;;;;;;9.52;4.50;;;;;;;11.79;47.57;102917.78;4976901;28;109501;-70
2022/04/29 01:05:41;;;;;;;10.57;4.80;;;;;;;11.77;47.68;102908.97;4995629;28;109286;-69
2022/04/29 01:08:09;;;;;;;11.70;5.03;;;;;;;11.74;47.43;102903.69;4977292;28;122276;-69
2022/04/29 01:10:36;;;;;;;8.95;4.82;;;;;;;11.75;47.46;102910.75;4992283;28;124057;-68
2022/04/29 01:13:04;;;;;;;8.23;4.60;;;;;;;11.74;47.52;102903.69;4992989;28;110369;-69
2022/04/29 01:15:32;;;;;;;8.38;4.32;;;;;;;11.74;47.49;102903.69;4962016;28;109525;-70
2022/04/29 01:18:01;;;;;;;11.32;4.57;;;;;;;11.73;47.48;102901.94;4976951;28;123181;-70
2022/04/29 01:20:31;;;;;;;7.05;4.47;;;;;;;11.69;47.74;102910.84;4976072;28;122943;-69
2022/04/29 01:23:04;;;;;;;12.23;4.90;;;;;;;11.66;47.74;102905.63;4993142;28;109577;-69
2022/04/29 01:25:32;;;;;;;8.82;4.82;;;;;;;11.65;47.62;102906.50;4977675;28;108652;-69
2022/04/29 01:27:59;;;;;;;9.77;5.03;;;;;;;11.62;47.92;102898.56;4977000;28;123160;-69
2022/04/29 01:30:27;;;;;;;10.43;4.75;;;;;;;11.60;47.91;102900.38;4976695;28;124089;-69
2022/04/29 01:32:55;;;;;;;10.57;4.68;;;;;;;11.58;47.85;102907.50;4976996;28;109032;-68
2022/04/29 01:35:23;;;;;;;12.13;5.00;;;;;;;11.57;47.90;102905.75;4977416;28;108215;-69
2022/04/29 01:37:51;;;;;;;9.93;4.85;;;;;;;11.55;47.67;102902.25;4975824;28;123161;-68
2022/04/29 01:40:19;;;;;;;10.88;4.88;;;;;;;11.54;47.97;102900.50;4976432;28;123708;-68
2022/04/29 01:42:47;;;;;;;12.90;5.30;;;;;;;11.50;47.66;102895.22;4977062;28;108349;-68
2022/04/29 01:45:15;;;;;;;11.77;4.68;;;;;;;11.47;48.17;102889.97;4993798;28;108507;-68
2022/04/29 01:47:51;;;;;;;10.15;5.07;;;;;;;11.45;48.21;102886.47;4993152;28;123852;-69
2022/04/29 01:50:42;;;;;;;10.43;4.97;;;;;;;11.42;47.99;102883.88;4976485;28;124480;-69
2022/04/29 01:53:09;;;;;;;7.97;5.05;;;;;;;11.35;48.10;102879.53;4960637;28;108587;-70
2022/04/29 01:55:36;;;;;;;11.38;5.57;;;;;;;11.33;48.27;102880.47;4977358;28;108181;-69
2022/04/29 01:58:06;;;;;;;11.73;5.35;;;;;;;11.28;48.24;102884.09;4976066;28;123256;-69
2022/04/29 02:00:33;;;;;;;11.60;5.60;;;;;;;11.24;48.23;102881.50;4975811;28;122995;-70
2022/04/29 02:03:00;;;;;;;12.25;5.43;;;;;;;11.20;48.61;102874.47;4992646;28;109202;-69
2022/04/29 02:05:29;;;;;;;10.43;5.10;;;;;;;11.15;48.72;102871.00;4993760;28;109951;-70
2022/04/29 02:08:00;;;;;;;10.05;5.13;;;;;;;11.12;48.84;102876.38;4993520;28;125038;-70
2022/04/29 02:10:29;;;;;;;9.50;5.35;;;;;;;11.07;48.56;102872.00;4976243;28;123019;-69
2022/04/29 02:12:56;;;;;;;14.98;5.10;;;;;;;11.04;48.69;102872.06;4992688;28;108397;-69
2022/04/29 02:15:36;;;;;;;12.98;5.13;;;;;;;11.00;48.86;102867.69;4976998;28;108446;-69
2022/04/29 02:18:07;;;;;;;13.40;5.78;;;;;;;10.97;49.03;102866.88;4976181;28;123833;-69
2022/04/29 02:20:35;;;;;;;12.18;5.53;;;;;;;10.93;48.69;102871.34;4991769;28;123570;-68
2022/04/29 02:23:02;;;;;;;14.93;5.88;;;;;;;10.90;48.90;102866.06;4993995;28;108779;-69
2022/04/29 02:25:29;;;;;;;11.02;5.30;;;;;;;10.90;49.04;102860.75;4996015;28;108777;-69
2022/04/29 02:27:57;;;;;;;11.05;5.80;;;;;;;10.88;48.82;102858.13;4981619;28;123461;-68
2022/04/29 02:30:25;;;;;;;10.90;5.25;;;;;;;10.85;49.15;102868.78;4958829;28;123188;-69
2022/04/29 02:32:53;;;;;;;11.85;5.78;;;;;;;10.83;49.14;102867.03;4991949;28;109246;-68
2022/04/29 02:35:20;;;;;;;11.90;5.72;;;;;;;10.79;48.94;102867.97;4993413;28;108767;-68
2022/04/29 02:37:47;;;;;;;11.00;5.45;;;;;;;10.78;49.05;102871.53;4975125;28;123212;-69
2022/04/29 02:40:15;;;;;;;13.38;5.70;;;;;;;10.76;49.08;102873.34;4986492;28;124167;-68
2022/04/29 02:42:42;;;;;;;10.85;5.75;;;;;;;10.73;49.20;102862.78;5011842;28;109527;-68
2022/04/29 02:45:10;;;;;;;13.25;5.35;;;;;;;10.73;49.17;102860.13;4996730;28;108151;-68
2022/04/29 02:47:41;;;;;;;13.52;5.63;;;;;;;10.69;49.45;102849.53;4995462;28;123537;-68
2022/04/29 02:50:09;;;;;;;9.70;5.53;;;;;;;10.68;49.17;102855.75;4995037;28;123278;-69
2022/04/29 02:52:37;;;;;;;12.18;5.63;;;;;;;10.67;49.45;102859.28;4978163;28;110368;-68
2022/04/29 02:55:04;;;;;;;14.95;6.03;;;;;;;10.65;49.35;102861.09;4991679;28;110895;-69
2022/04/29 02:57:45;;;;;;;14.27;5.88;;;;;;;10.60;49.53;102852.31;4975165;28;125961;-69
2022/04/29 03:00:12;;;;;;;12.25;5.97;;;;;;;10.59;49.78;102847.94;4992267;28;124211;-68
2022/04/29 03:02:39;;;;;;;10.25;5.32;;;;;;;10.58;49.97;102854.09;4975736;28;108428;-68
2022/04/29 03:05:07;;;;;;;11.85;6.10;;;;;;;10.57;49.70;102851.47;4991197;28;109374;-68
2022/04/29 03:07:34;;;;;;;10.48;5.65;;;;;;;10.54;49.84;102847.09;4991230;28;124118;-69
2022/04/29 03:10:06;;;;;;;11.63;5.90;;;;;;;10.53;50.04;102855.97;4975575;28;123126;-68
2022/04/29 03:12:35;;;;;;;10.25;5.80;;;;;;;10.51;49.68;102842.72;4975509;28;108568;-68
2022/04/29 03:15:16;;;;;;;15.25;6.25;;;;;;;10.50;50.13;102846.25;4976204;28;111644;-68
2022/04/29 03:20:35;;;;;;;14.20;5.40;;;;;;;10.49;50.15;102838.31;4990117;28;123916;-68
2022/04/29 03:23:04;;;;;;;11.02;5.90;;;;;;;10.51;50.14;102841.88;4991447;28;109552;-69
2022/04/29 03:25:32;;;;;;;14.73;5.82;;;;;;;10.51;50.01;102853.31;4975953;28;109194;-68
2022/04/29 03:27:59;;;;;;;12.65;6.22;;;;;;;10.54;50.19;102848.88;4975182;28;123198;-68
2022/04/29 03:30:28;;;;;;;12.27;6.15;;;;;;;10.53;50.00;102845.38;4974621;28;123224;-68
2022/04/29 03:32:58;;;;;;;12.88;5.65;;;;;;;10.55;50.02;102842.66;4975381;28;110009;-67
2022/04/29 03:35:41;;;;;;;11.82;6.00;;;;;;;10.57;50.20;102847.06;4976026;28;108476;-68
2022/04/29 03:38:14;;;;;;;11.98;5.93;;;;;;;10.57;50.07;102841.78;4974285;28;126803;-68
2022/04/29 03:40:41;;;;;;;10.90;5.53;;;;;;;10.56;50.10;102842.66;4974899;28;123352;-68
2022/04/29 03:43:12;;;;;;;13.45;5.55;;;;;;;10.56;50.00;102845.31;4975042;28;109539;-68
2022/04/29 03:45:40;;;;;;;17.38;6.30;;;;;;;10.54;50.26;102836.50;4975735;28;109519;-69
2022/04/29 03:48:11;;;;;;;15.35;6.50;;;;;;;10.53;49.95;102834.78;4974864;28;123213;-69
2022/04/29 03:51:06;;;;;;;13.40;6.20;;;;;;;10.51;50.05;102836.56;4974784;28;123301;-71
2022/04/29 03:53:33;;;;;;;12.73;6.70;;;;;;;10.47;50.47;102824.22;4975466;28;109693;-70
2022/04/29 03:56:04;;;;;;;13.23;6.75;;;;;;;10.44;50.72;102808.38;4975524;28;108219;-70
2022/04/29 03:58:31;;;;;;;14.18;6.57;;;;;;;10.38;50.92;102808.44;4975024;28;123622;-70
2022/04/29 04:00:59;;;;;;;13.15;7.13;;;;;;;10.33;50.99;102817.34;4974993;28;123166;-70
2022/04/29 04:03:51;;;;;;;11.48;6.82;;;;;;;10.27;51.00;102817.38;4975008;28;108416;-71
2022/04/29 04:09:08;;;;;;;16.38;7.22;;;;;;;10.20;51.07;102831.59;4974097;28;123282;-72
2022/04/29 04:11:37;;;;;;;15.93;6.65;;;;;;;10.18;51.47;102828.06;4988520;28;124707;-71
2022/04/29 04:14:06;;;;;;;14.20;6.80;;;;;;;10.18;51.10;102836.03;4974155;28;109333;-73
2022/04/29 04:16:38;;;;;;;14.23;7.10;;;;;;;10.17;51.27;102834.28;4974597;28;108711;-71
2022/04/29 04:19:06;;;;;;;15.93;7.35;;;;;;;10.16;51.52;102845.75;4989058;28;124498;-71
2022/04/29 04:21:33;;;;;;;16.50;7.22;;;;;;;10.16;50.98;102845.75;4971747;28;123002;-71
2022/04/29 04:24:02;;;;;;;13.75;6.80;;;;;;;10.17;51.35;102847.53;5002735;28;108310;-70
2022/04/29 04:26:29;;;;;;;15.00;6.95;;;;;;;10.19;51.11;102840.44;4977810;28;108845;-70
2022/04/29 04:29:01;;;;;;;11.65;6.97;;;;;;;10.22;51.36;102843.03;4990734;28;123881;-70
2022/04/29 04:31:37;;;;;;;15.32;6.70;;;;;;;10.23;50.95;102836.84;4997211;28;122625;-71
2022/04/29 04:34:49;;;;;;;13.48;6.45;;;;;;;10.26;51.33;102835.94;4997670;28;109425;-72
2022/04/29 04:36:54;;;;;;;12.05;6.65;;;;;;;10.28;50.91;102828.84;5016032;28;109993;-70
2022/04/29 04:39:24;;;;;;;17.42;7.53;;;;;;;10.28;51.01;102824.44;4998348;28;123421;-71
2022/04/29 04:41:55;;;;;;;13.65;6.60;;;;;;;10.29;51.10;102820.88;4997250;28;123288;-70
2022/04/29 04:44:34;;;;;;;15.15;6.78;;;;;;;10.31;50.71;102829.72;5016275;28;109431;-69
2022/04/29 04:47:03;;;;;;;17.13;6.95;;;;;;;10.31;50.80;102837.66;4982015;28;108521;-70
2022/04/29 04:49:56;;;;;;;12.90;6.63;;;;;;;10.31;51.04;102824.41;4997343;28;123478;-70
2022/04/29 04:52:26;;;;;;;17.67;7.40;;;;;;;10.31;51.16;102824.41;4992132;28;122995;-70
2022/04/29 04:54:54;;;;;;;16.00;6.82;;;;;;;10.32;50.99;102828.84;4978509;28;109461;-70
2022/04/29 04:57:25;;;;;;;15.43;7.18;;;;;;;10.30;51.01;102833.28;4978510;28;108036;-70
2022/04/29 04:59:53;;;;;;;13.27;6.95;;;;;;;10.28;51.03;102818.25;4994116;28;124849;-70
2022/04/29 05:02:21;;;;;;;13.27;7.18;;;;;;;10.28;50.95;102821.78;4978249;28;123544;-70
2022/04/29 05:04:48;;;;;;;12.65;6.90;;;;;;;10.28;51.03;102824.44;4996684;28;109775;-71
2022/04/29 05:07:34;;;;;;;;;;;;;;;10.26;50.95;102820.91;4997428;28;109857;-68
2022/04/29 05:10:01;;;;;;;12.18;6.32;;;;;;;10.29;50.87;102826.19;4977370;28;123484;-70
2022/04/29 05:12:28;;;;;;;14.68;7.05;;;;;;;10.30;50.77;102827.97;4977831;28;123463;-68
2022/04/29 05:15:10;;;;;;;15.15;7.18;;;;;;;10.30;51.22;102827.97;4995958;28;109422;-68
2022/04/29 05:17:39;;;;;;;14.57;7.15;;;;;;;10.31;51.32;102832.38;4978910;28;108374;-68
2022/04/29 05:20:25;;;;;;;17.17;7.65;;;;;;;10.31;51.08;102824.41;4977193;28;123756;-69
2022/04/29 05:22:52;;;;;;;16.15;7.07;;;;;;;10.35;50.94;102835.00;4977352;28;122919;-68
2022/04/29 05:25:20;;;;;;;13.40;7.07;;;;;;;10.35;51.22;102830.56;4994045;28;110421;-69
2022/04/29 05:28:07;;;;;;;16.27;7.10;;;;;;;10.36;51.28;102827.03;4996181;28;110629;-69
2022/04/29 05:31:12;;;;;;;12.25;6.97;;;;;;;10.40;51.04;102833.16;4933624;28;124679;-69
2022/04/29 05:34:00;;;;;;;15.85;6.85;;;;;;;10.43;51.42;102838.41;4933537;28;125315;-69
2022/04/29 05:36:46;;;;;;;14.90;7.22;;;;;;;10.44;51.31;102829.59;4979382;28;110699;-69
2022/04/29 05:42:22;;;;;;;17.33;7.22;;;;;;;10.44;51.47;102829.59;4977421;28;123491;-69
2022/04/29 05:44:50;;;;;;;18.63;7.28;;;;;;;10.46;51.14;102833.09;4995745;28;123734;-69
2022/04/29 05:47:17;;;;;;;14.88;7.10;;;;;;;10.47;51.26;102829.53;4993118;28;109259;-72
2022/04/29 05:49:47;;;;;;;14.07;7.32;;;;;;;10.50;51.54;102835.66;4977313;28;108599;-71
2022/04/29 05:52:15;;;;;;;14.63;7.65;;;;;;;10.54;51.57;102836.50;4976312;28;123662;-71
2022/04/29 05:54:45;;;;;;;16.05;6.85;;;;;;;10.55;51.31;102832.97;4976788;28;123746;-70
2022/04/29 05:57:17;;;;;;;16.13;7.10;;;;;;;10.58;51.47;102840.88;4977482;28;108769;-69
2022/04/29 05:59:44;;;;;;;16.95;7.25;;;;;;;10.61;51.45;102843.47;4977387;28;108522;-69
2022/04/29 06:02:44;;;;;;;12.98;7.30;;;;;;;10.62;51.59;102850.50;5004024;28;125210;-71
2022/04/29 06:05:15;;;;;;;13.47;7.00;;;;;;;10.64;51.63;102843.44;4991686;28;127193;-70
2022/04/29 06:07:44;;;;;;;16.35;7.65;;;;;;;10.67;51.77;102838.09;5001478;28;109633;-72
2022/04/29 06:10:20;;;;;;;16.40;7.00;;;;;;;10.70;51.71;102851.31;4997218;28;108627;-71
2022/04/29 06:12:47;;;;;;;16.42;6.93;;;;;;;10.71;51.75;102837.16;4999085;28;123927;-72
2022/04/29 06:15:21;;;;;;;14.20;6.88;;;;;;;10.75;51.80;102837.13;4981979;28;123748;-72
2022/04/29 06:18:08;;;;;;;16.85;7.53;;;;;;;10.80;51.70;102837.94;4985943;28;109467;-71
2022/04/29 06:20:54;;;;;;;15.57;7.43;;;;;;;10.83;51.52;102843.19;5006108;28;110589;-71
2022/04/29 06:23:48;;;;;;;15.63;7.10;;;;;;;10.87;51.48;102836.97;4994607;28;125162;-72
2022/04/29 06:26:16;;;;;;;16.98;7.43;;;;;;;10.92;51.79;102843.06;5000752;28;124397;-71
2022/04/29 06:28:43;;;;;;;13.68;6.90;;;;;;;10.95;51.69;102845.66;4983445;28;108799;-72
2022/04/29 06:31:12;;;;;;;15.95;7.57;;;;;;;10.98;51.82;102843.00;4983876;28;107985;-72
2022/04/29 06:33:58;;;;;;;;;;;;;;;10.99;51.45;102847.38;5003030;28;124922;-71
2022/04/29 06:36:26;;;;;;;14.90;6.82;;;;;;;11.02;51.52;102854.41;4997041;28;123204;-71
2022/04/29 06:38:58;;;;;;;13.00;6.97;;;;;;;11.03;51.58;102862.34;4987394;28;108534;-71
2022/04/29 06:41:54;;;;;;;;;;;;;;;11.08;51.11;102855.19;5000638;28;110063;-72
2022/04/29 06:44:40;;;;;;;;;;;;;;;11.14;51.19;102853.38;5001890;28;125608;-72
2022/04/29 06:47:36;;;;;;;14.95;7.53;;;;;;;11.20;51.14;102858.56;4987239;28;124725;-71
2022/04/29 06:50:26;;;;;;;20.48;7.72;;;;;;;11.24;51.58;102860.25;4999581;28;108305;-71
2022/04/29 06:53:11;;;;;;;13.63;6.53;;;;;;;11.28;51.18;102867.28;5005338;28;110204;-71
2022/04/29 06:55:39;;;;;;;16.17;7.13;;;;;;;11.32;51.49;102869.00;4992366;28;123665;-71
2022/04/29 06:58:07;;;;;;;14.68;7.20;;;;;;;11.36;51.50;102865.41;4975521;28;123340;-71
2022/04/29 07:00:39;;;;;;;16.73;7.30;;;;;;;11.42;51.70;102878.56;4988315;28;109036;-71
2022/04/29 07:03:06;;;;;;;14.55;6.82;;;;;;;11.50;51.50;102873.13;5001230;28;108293;-71
2022/04/29 07:05:37;;;;;;;20.13;7.50;;;;;;;11.56;51.44;102866.84;4979372;28;123684;-72
2022/04/29 07:08:09;;;;;;;15.53;7.37;;;;;;;11.62;51.73;102861.41;4980648;28;127163;-69
2022/04/29 07:10:56;;;;;;;12.32;6.65;;;;;;;11.67;51.66;102860.44;4993398;28;110785;-69
2022/04/29 07:14:02;;;;;;;13.85;7.07;;;;;;;11.75;51.37;102867.41;4982545;28;109958;-68
2022/04/29 07:16:40;;;;;;;17.45;7.15;;;;;;;11.80;51.61;102855.78;4975747;28;127102;-69
2022/04/29 07:19:12;;;;;;;17.15;7.43;;;;;;;11.89;51.53;102865.38;4975541;28;122684;-68
2022/04/29 07:21:40;;;;;;;13.75;7.05;;;;;;;11.95;51.69;102860.00;4975575;28;108820;-68
2022/04/29 07:24:08;;;;;;;14.57;7.05;;;;;;;12.00;51.29;102862.56;4991738;28;108168;-68
2022/04/29 07:26:39;;;;;;;20.95;7.43;;;;;;;12.05;51.54;102860.69;4974969;28;123122;-68
2022/04/29 07:29:08;;;;;;;15.63;7.38;;;;;;;12.12;51.49;102857.03;4995669;28;123196;-68
2022/04/29 07:31:40;;;;;;;16.48;7.40;;;;;;;12.23;51.79;102865.66;4994507;28;108699;-68
2022/04/29 07:43:07;;;;;;;14.32;6.50;;;;;;;12.68;51.10;102850.56;4996089;28;108577;-68
2022/04/29 07:45:36;;;;;;;15.38;6.97;;;;;;;12.78;51.02;102858.31;4996300;28;108456;-68
2022/04/29 07:48:30;;;;;;;17.53;7.67;;;;;;;12.88;51.04;102853.66;5010274;28;124899;-68
2022/04/29 07:51:00;;;;;;;17.58;6.90;;;;;;;12.97;50.88;102853.47;5006420;28;124363;-69
2022/04/29 07:53:28;;;;;;;15.07;6.90;;;;;;;13.10;50.91;102858.50;4989056;28;109582;-69
2022/04/29 07:55:57;;;;;;;13.82;6.55;;;;;;;13.20;50.89;102860.94;4993229;28;108978;-72
2022/04/29 07:58:24;;;;;;;13.90;7.10;;;;;;;13.32;50.94;102859.78;4975457;28;123869;-72
2022/04/29 08:00:55;;;;;;;16.08;6.68;;;;;;;13.46;50.85;102861.22;4976951;28;123199;-71
2022/04/29 08:03:42;;;;;;;14.00;6.78;;;;;;;13.60;50.60;102864.44;4987404;28;109195;-72
2022/04/29 08:06:13;;;;;;;13.32;7.55;;;;;;;13.69;50.43;102866.84;4996952;28;108870;-72
2022/04/29 08:08:40;;;;;;;13.30;7.18;;;;;;;13.78;50.13;102869.25;4987094;28;125303;-71
2022/04/29 08:11:08;;;;;;;13.52;6.60;;;;;;;13.82;49.98;102860.31;4994101;28;124032;-72
2022/04/29 08:14:00;;;;;;;18.50;7.22;;;;;;;13.89;49.83;102868.13;5005483;28;110529;-72
2022/04/29 08:17:06;;;;;;;12.83;7.17;;;;;;;13.98;49.70;102870.56;5002598;28;109848;-72
2022/04/29 08:19:36;;;;;;;14.43;7.10;;;;;;;14.07;49.76;102862.31;4984934;28;124217;-71
2022/04/29 08:22:18;;;;;;;14.35;6.80;;;;;;;14.21;49.76;102857.47;4979837;28;123779;-71
2022/04/29 08:24:46;;;;;;;16.42;8.10;;;;;;;14.36;49.58;102852.63;4994925;28;108464;-71
2022/04/29 08:27:14;;;;;;;14.95;6.65;;;;;;;14.46;49.50;102846.09;4989258;28;108763;-71
2022/04/29 08:29:49;;;;;;;13.02;7.22;;;;;;;14.57;49.40;102854.69;4993422;28;123757;-71
2022/04/29 08:32:16;;;;;;;15.52;7.22;;;;;;;14.64;49.06;102854.53;4994910;28;123268;-71
2022/04/29 08:34:45;;;;;;;14.05;7.05;;;;;;;14.68;49.01;102858.84;4994835;28;108616;-72
2022/04/29 08:37:12;;;;;;;14.68;6.63;;;;;;;14.73;49.00;102862.22;4977974;28;108181;-71
2022/04/29 08:39:42;;;;;;;14.48;7.10;;;;;;;14.84;49.22;102857.44;4994553;28;123626;-71
2022/04/29 08:42:14;;;;;;;16.58;6.97;;;;;;;14.95;48.89;102860.63;4995449;28;123961;-70
2022/04/29 08:44:42;;;;;;;12.88;7.00;;;;;;;15.03;48.83;102856.88;4991534;28;109176;-70
2022/04/29 08:47:36;;;;;;;14.80;6.97;;;;;;;15.09;48.48;102868.22;4986958;28;108350;-70
2022/04/29 08:50:22;;;;;;;13.23;7.30;;;;;;;15.16;48.55;102869.78;4962292;28;123990;-71
2022/04/29 08:52:50;;;;;;;13.63;6.90;;;;;;;15.27;48.46;102866.75;4997205;28;124136;-70
2022/04/29 09:00:50;;;;;;;12.10;6.95;;;;;;;15.51;48.00;102869.56;5011320;28;123957;-70
2022/04/29 09:03:20;;;;;;;14.80;7.90;;;;;;;15.56;47.80;102856.94;5014440;28;123820;-67
2022/04/29 09:05:49;;;;;;;16.50;6.80;;;;;;;15.60;47.96;102874.59;5013134;28;110550;-68
2022/04/29 09:08:21;;;;;;;15.40;7.13;;;;;;;15.70;48.01;102870.66;4995809;28;109582;-68
2022/04/29 09:10:53;;;;;;;13.63;7.07;;;;;;;15.80;47.65;102870.38;5010867;28;124325;-68
2022/04/29 09:13:30;;;;;;;13.05;6.75;;;;;;;15.87;47.66;102871.94;5014702;28;123664;-68
2022/04/29 09:16:05;;;;;;;13.50;7.18;;;;;;;15.94;47.58;102868.13;5013171;28;109491;-68
2022/04/29 09:18:45;;;;;;;16.23;7.40;;;;;;;16.00;47.35;102865.22;4998803;28;108754;-68
2022/04/29 09:21:17;;;;;;;18.40;8.00;;;;;;;16.06;47.22;102867.66;5013595;28;125052;-68
2022/04/29 09:23:47;;;;;;;14.88;7.28;;;;;;;16.10;47.18;102863.94;4996077;28;124059;-71
2022/04/29 09:26:35;;;;;;;12.13;6.57;;;;;;;16.18;47.18;102865.47;5016775;28;109979;-72
2022/04/29 09:29:21;;;;;;;15.55;7.00;;;;;;;16.27;47.17;102859.81;5016312;28;110296;-71
2022/04/29 09:32:08;;;;;;;12.98;6.32;;;;;;;16.38;47.24;102857.59;5015779;28;124667;-68
2022/04/29 09:34:55;;;;;;;20.65;6.80;;;;;;;16.47;46.84;102856.41;5015952;28;124458;-68
2022/04/29 09:37:27;;;;;;;15.20;7.10;;;;;;;16.52;46.58;102855.28;5014790;28;109143;-68
2022/04/29 09:40:06;;;;;;;11.95;6.57;;;;;;;16.55;46.56;102855.16;4998003;28;108972;-68
2022/04/29 09:42:37;;;;;;;12.75;6.25;;;;;;;16.61;46.44;102847.84;5015204;28;125068;-68
2022/04/29 09:45:12;;;;;;;13.20;6.95;;;;;;;16.70;46.47;102847.47;4981283;28;123102;-67
2022/04/29 09:47:39;;;;;;;16.60;6.75;;;;;;;16.76;46.43;102849.91;5015110;28;109962;-68
2022/04/29 09:50:06;;;;;;;11.43;6.05;;;;;;;16.83;46.43;102837.22;5012538;28;110586;-71
2022/04/29 09:52:38;;;;;;;12.15;6.75;;;;;;;16.90;46.26;102828.88;4996644;28;123375;-71
2022/04/29 09:55:23;;;;;;;12.68;6.60;;;;;;;16.98;45.89;102830.38;5012091;28;123954;-71
2022/04/29 09:58:00;;;;;;;12.73;6.57;;;;;;;17.01;45.94;102830.22;5012582;28;109119;-72
2022/04/29 10:00:27;;;;;;;13.13;6.63;;;;;;;17.04;45.84;102830.13;4994265;28;108799;-71
2022/04/29 10:02:56;;;;;;;12.50;6.30;;;;;;;17.06;45.70;102836.28;5013218;28;123977;-71
2022/04/29 10:05:27;;;;;;;12.10;6.18;;;;;;;17.10;45.83;102835.22;5012278;28;124234;-70
2022/04/29 10:08:07;;;;;;;13.43;5.82;;;;;;;17.17;45.62;102842.06;4997320;28;108958;-71
2022/04/29 10:10:35;;;;;;;14.35;6.28;;;;;;;17.22;45.48;102845.44;5015264;27;110169;-71
2022/04/29 10:13:07;;;;;;;15.15;6.00;;;;;;;17.26;45.48;102841.69;4996019;28;123640;-71
2022/04/29 10:15:46;;;;;;;15.07;6.28;;;;;;;17.34;45.58;102848.56;4998554;28;124743;-71
2022/04/29 10:22:13;;;;;;;11.65;5.97;;;;;;;17.41;45.17;102850.03;5014223;28;108921;-72
2022/04/29 10:24:42;;;;;;;13.75;6.00;;;;;;;17.39;45.04;102835.84;5012802;28;124544;-71
2022/04/29 10:27:11;;;;;;;11.63;5.60;;;;;;;17.36;44.91;102831.47;5012368;28;124316;-72
2022/04/29 10:29:40;;;;;;;14.02;6.53;;;;;;;17.33;44.81;102836.97;5012543;28;109204;-71
2022/04/29 10:32:09;;;;;;;11.82;6.10;;;;;;;17.30;44.86;102832.59;4980448;28;108787;-71
2022/04/29 10:34:36;;;;;;;10.45;6.13;;;;;;;17.25;44.47;102831.94;5013999;28;123976;-72
2022/04/29 10:37:12;;;;;;;12.77;5.57;;;;;;;17.22;44.78;102829.38;4995889;28;123630;-71
2022/04/29 10:39:41;;;;;;;15.45;6.05;;;;;;;17.24;44.90;102843.56;4978090;28;110022;-71
2022/04/29 10:42:09;;;;;;;9.00;6.05;;;;;;;17.25;44.87;102845.34;5002295;28;110619;-71
2022/04/29 10:45:00;;;;;;;14.45;6.68;;;;;;;17.23;44.61;102841.81;4979930;28;123581;-70
2022/04/29 10:47:38;;;;;;;11.95;6.03;;;;;;;17.22;44.72;102840.09;5005290;28;124730;-70
2022/04/29 10:50:29;;;;;;;10.48;5.50;;;;;;;17.22;44.72;102842.78;5001172;28;109339;-71
2022/04/29 10:53:14;;;;;;;10.35;5.63;;;;;;;17.23;44.40;102846.31;4993294;28;109743;-71
2022/04/29 10:55:42;;;;;;;13.45;6.30;;;;;;;17.22;44.61;102833.88;4987150;28;123444;-70
2022/04/29 10:58:21;;;;;;;10.75;5.85;;;;;;;17.21;44.62;102837.47;4998055;28;124492;-71
2022/04/29 11:01:31;;;;;;;10.82;5.40;;;;;;;17.18;44.57;102838.47;5012402;28;109372;-68
2022/04/29 11:04:04;;;;;;;11.23;5.57;;;;;;;17.17;44.46;102831.38;5013861;28;108837;-67
2022/04/29 11:06:52;;;;;;;11.23;5.80;;;;;;;17.14;44.18;102826.16;4995270;28;125192;-67
2022/04/29 11:09:47;;;;;;;10.13;5.50;;;;;;;17.10;44.25;102829.88;5010992;28;124058;-67
2022/04/29 11:13:09;;;;;;;13.27;5.33;;;;;;;17.06;44.22;102822.91;4998381;28;110290;-67
2022/04/29 11:16:08;;;;;;;10.38;5.22;;;;;;;17.06;44.29;102817.53;5001465;28;109533;-68
2022/04/29 11:19:26;;;;;;;10.52;5.38;;;;;;;17.09;44.26;102806.72;4969108;28;124048;-68
2022/04/29 11:24:50;;;;;;;12.80;5.32;;;;;;;17.12;44.07;102806.56;4990129;28;108331;-67
2022/04/29 11:27:37;;;;;;;10.80;4.93;;;;;;;17.17;44.04;102811.75;4983802;28;108120;-68
2022/04/29 11:30:09;;;;;;;10.45;5.40;;;;;;;17.20;43.71;102804.47;4985395;28;123405;-67
2022/04/29 11:33:06;;;;;;;9.55;4.90;;;;;;;17.22;43.73;102802.59;4990160;28;124549;-67
2022/04/29 11:35:33;;;;;;;8.50;5.07;;;;;;;17.25;43.71;102805.16;5001990;28;111137;-68
2022/04/29 11:38:00;;;;;;;10.30;5.15;;;;;;;17.30;43.48;102804.94;4983257;28;109592;-67
2022/04/29 11:40:28;;;;;;;10.07;5.00;;;;;;;17.31;43.32;102804.91;4997465;28;124206;-68
2022/04/29 11:42:58;;;;;;;8.68;4.82;;;;;;;17.34;43.21;102794.97;5000315;28;123659;-71
2022/04/29 11:45:26;;;;;;;10.27;5.25;;;;;;;17.36;43.09;102803.81;4994730;28;96961;-70
2022/04/29 11:48:06;;;;;;;8.68;5.10;;;;;;;17.38;43.08;102807.31;4992527;28;109284;-70
2022/04/29 11:50:37;;;;;;;12.20;5.32;;;;;;;17.40;43.20;102813.47;4989663;28;124071;-70
2022/04/29 11:53:07;;;;;;;12.07;6.72;;;;;;;17.43;43.31;102816.03;4997886;28;123970;-71
2022/04/29 11:55:35;;;;;;;11.73;6.22;;;;;;;17.43;43.38;102805.31;4992770;28;110152;-71
2022/04/29 11:58:03;;;;;;;13.13;5.78;;;;;;;17.44;43.59;102807.03;4991016;28;108804;-72
2022/04/29 12:00:33;;;;;;;10.65;6.07;;;;;;;17.46;43.77;102806.06;4991935;28;124653;-67
2022/04/29 12:03:03;;;;;;;12.07;6.30;;;;;;;17.49;43.57;102805.03;4975366;28;123134;-67
2022/04/29 12:05:31;;;;;;;11.35;6.00;;;;;;;17.49;43.51;102797.00;4973978;28;109040;-68
2022/04/29 12:08:03;;;;;;;14.93;6.65;;;;;;;17.48;43.42;102797.97;4975969;28;108536;-67
2022/04/29 12:10:53;;;;;;;13.45;5.70;;;;;;;17.47;43.58;102801.56;4992805;28;125375;-69